Time;durP1;ratioP1;P1;durP2;ratioP2;P2;SDS_P1;SDS_P2;PMS_P1;PMS_P2;Temp;Humidity;BMP_temperature;BMP_pressure;BME280_temperature;BME280_humidity;BME280_pressure;Samples;Min_cycle;Max_cycle;Signal;HPM_P1;HPM_P2
2022/08/26 00:00:43;;;;;;;51.67;41.80;;;;;;;;;;5039706;28;20037;-62
2022/08/26 00:03:09;;;;;;;51.78;43.50;;;;;;;;;;5050199;28;20029;-62
2022/08/26 00:05:35;;;;;;;50.30;41.85;;;;;;;;;;5052594;28;20063;-62
2022/08/26 00:08:01;;;;;;;51.35;43.15;;;;;;;;;;5052303;28;20057;-62
2022/08/26 00:10:28;;;;;;;49.00;40.88;;;;;;;;;;5052498;28;20064;-62
2022/08/26 00:12:54;;;;;;;48.60;40.38;;;;;;;;;;5052473;28;20049;-62
2022/08/26 00:15:20;;;;;;;51.55;40.60;;;;;;;;;;5052706;28;20037;-62
2022/08/26 00:17:47;;;;;;;46.70;39.40;;;;;;;;;;5052247;28;20056;-62
2022/08/26 00:20:15;;;;;;;49.22;40.63;;;;;;;;;;5052349;28;20460;-62
2022/08/26 00:22:41;;;;;;;50.65;41.05;;;;;;;;;;5052705;28;20079;-62
2022/08/26 00:25:07;;;;;;;49.90;42.55;;;;;;;;;;5052588;28;20526;-62
2022/08/26 00:27:34;;;;;;;50.83;43.58;;;;;;;;;;5052015;28;20041;-62
2022/08/26 00:30:00;;;;;;;50.88;42.58;;;;;;;;;;5052458;28;20051;-62
2022/08/26 00:32:26;;;;;;;49.95;41.22;;;;;;;;;;5052394;28;20132;-62
2022/08/26 00:34:52;;;;;;;54.38;40.83;;;;;;;;;;5052011;28;20455;-62
2022/08/26 00:37:19;;;;;;;47.97;40.08;;;;;;;;;;5052039;28;20071;-62
2022/08/26 00:39:45;;;;;;;52.30;41.90;;;;;;;;;;5052234;28;20077;-62
2022/08/26 00:42:11;;;;;;;53.60;41.63;;;;;;;;;;5051664;28;20056;-62
2022/08/26 00:44:37;;;;;;;54.10;40.88;;;;;;;;;;5052121;28;20478;-62
2022/08/26 00:47:06;;;;;;;55.60;42.60;;;;;;;;;;5052076;28;20043;-62
2022/08/26 00:49:35;;;;;;;59.45;38.63;;;;;;;;;;5051746;28;20052;-62
2022/08/26 00:52:04;;;;;;;49.05;36.15;;;;;;;;;;5052173;28;20036;-62
2022/08/26 00:54:33;;;;;;;49.35;37.35;;;;;;;;;;5052082;28;20095;-62
2022/08/26 00:57:05;;;;;;;50.97;35.85;;;;;;;;;;5051481;28;20043;-62
2022/08/26 00:59:32;;;;;;;46.38;35.03;;;;;;;;;;5048527;28;20038;-62
2022/08/26 01:01:58;;;;;;;47.50;35.13;;;;;;;;;;5039316;28;20033;-62
2022/08/26 01:04:24;;;;;;;49.92;37.88;;;;;;;;;;5051682;28;20033;-62
2022/08/26 01:06:51;;;;;;;45.35;34.13;;;;;;;;;;5051217;28;20132;-62
2022/08/26 01:09:18;;;;;;;48.88;34.85;;;;;;;;;;5051356;28;20051;-62
2022/08/26 01:11:44;;;;;;;43.45;31.42;;;;;;;;;;5051410;28;20049;-62
2022/08/26 01:14:12;;;;;;;45.05;31.05;;;;;;;;;;5051762;28;20044;-62
2022/08/26 01:16:38;;;;;;;49.15;32.15;;;;;;;;;;5051452;28;20076;-62
2022/08/26 01:19:12;;;;;;;44.88;32.20;;;;;;;;;;5051327;28;20044;-62
2022/08/26 01:21:43;;;;;;;41.30;31.52;;;;;;;;;;5033729;28;20478;-62
2022/08/26 01:24:10;;;;;;;45.15;30.60;;;;;;;;;;5051643;28;20045;-62
2022/08/26 01:26:39;;;;;;;42.80;31.55;;;;;;;;;;5051037;28;20037;-62
2022/08/26 01:29:06;;;;;;;44.38;30.80;;;;;;;;;;5051474;28;20055;-62
2022/08/26 01:31:36;;;;;;;43.75;31.17;;;;;;;;;;5051538;28;20047;-62
2022/08/26 01:34:09;;;;;;;41.22;30.52;;;;;;;;;;5051179;28;20048;-62
2022/08/26 01:36:36;;;;;;;40.67;28.65;;;;;;;;;;5051211;28;20063;-62
2022/08/26 01:39:03;;;;;;;47.22;29.33;;;;;;;;;;5051415;28;20041;-62
2022/08/26 01:41:29;;;;;;;37.30;28.50;;;;;;;;;;5050893;28;20112;-62
2022/08/26 01:43:56;;;;;;;37.95;27.38;;;;;;;;;;5051405;28;20048;-62
2022/08/26 01:46:23;;;;;;;44.42;29.40;;;;;;;;;;5051300;28;20419;-62
2022/08/26 01:48:51;;;;;;;41.58;29.35;;;;;;;;;;5050828;28;20040;-62
2022/08/26 01:51:18;;;;;;;41.15;29.25;;;;;;;;;;5051306;28;20045;-62
2022/08/26 01:53:44;;;;;;;40.78;28.77;;;;;;;;;;5051086;28;20045;-62
2022/08/26 01:56:11;;;;;;;41.55;28.15;;;;;;;;;;5050897;28;20083;-62
2022/08/26 01:59:06;;;;;;;38.63;28.33;;;;;;;;;;5051321;28;20068;-62
2022/08/26 02:01:33;;;;;;;38.80;28.40;;;;;;;;;;5001721;28;20083;-62
2022/08/26 02:04:19;;;;;;;43.45;28.35;;;;;;;;;;5030771;28;20164;-62
2022/08/26 02:06:46;;;;;;;37.78;27.38;;;;;;;;;;5030893;28;20046;-62
2022/08/26 02:09:12;;;;;;;43.35;27.73;;;;;;;;;;5029661;28;20045;-62
2022/08/26 02:11:38;;;;;;;40.83;27.52;;;;;;;;;;5030918;28;20046;-62
2022/08/26 02:14:08;;;;;;;39.38;27.77;;;;;;;;;;5034783;28;20052;-62
2022/08/26 02:16:38;;;;;;;38.58;26.20;;;;;;;;;;5034927;28;20103;-62
2022/08/26 02:19:04;;;;;;;38.33;25.45;;;;;;;;;;5034804;28;20045;-62
2022/08/26 02:21:31;;;;;;;37.35;24.80;;;;;;;;;;5035047;28;20095;-62
2022/08/26 02:24:06;;;;;;;46.13;27.90;;;;;;;;;;5034606;28;20128;-62
2022/08/26 02:26:33;;;;;;;32.70;24.90;;;;;;;;;;5034452;28;20480;-62
2022/08/26 02:29:03;;;;;;;37.45;23.20;;;;;;;;;;5034772;28;20033;-62
2022/08/26 02:31:29;;;;;;;31.70;22.20;;;;;;;;;;5034840;28;20041;-62
2022/08/26 02:33:55;;;;;;;38.17;24.33;;;;;;;;;;5034328;28;20037;-62
2022/08/26 02:36:22;;;;;;;37.85;24.23;;;;;;;;;;5034458;28;20033;-62
2022/08/26 02:38:48;;;;;;;39.17;23.60;;;;;;;;;;5034394;28;20045;-62
2022/08/26 02:41:14;;;;;;;36.83;23.30;;;;;;;;;;5034454;28;20037;-62
2022/08/26 02:43:41;;;;;;;31.67;22.45;;;;;;;;;;5034590;28;20045;-62
2022/08/26 02:46:07;;;;;;;33.50;22.92;;;;;;;;;;5034475;28;20060;-62
2022/08/26 02:48:33;;;;;;;30.27;20.08;;;;;;;;;;5034097;28;20060;-62
2022/08/26 02:51:00;;;;;;;29.83;20.27;;;;;;;;;;5034165;28;20061;-62
2022/08/26 02:53:27;;;;;;;32.67;20.88;;;;;;;;;;5034472;28;20053;-62
2022/08/26 02:55:53;;;;;;;35.58;20.55;;;;;;;;;;5033682;28;20041;-62
2022/08/26 02:58:19;;;;;;;36.78;19.38;;;;;;;;;;5034173;28;20049;-62
2022/08/26 03:00:46;;;;;;;32.15;20.73;;;;;;;;;;5034113;28;20139;-62
2022/08/26 03:03:13;;;;;;;34.25;20.95;;;;;;;;;;5051208;28;20239;-62
2022/08/26 03:05:39;;;;;;;31.45;19.30;;;;;;;;;;5054055;28;20037;-62
2022/08/26 03:08:05;;;;;;;30.75;19.52;;;;;;;;;;5053642;28;20551;-62
2022/08/26 03:10:31;;;;;;;34.55;19.05;;;;;;;;;;5053607;28;20060;-62
2022/08/26 03:12:59;;;;;;;28.17;17.42;;;;;;;;;;5053745;28;20749;-62
2022/08/26 03:15:25;;;;;;;29.98;19.08;;;;;;;;;;5053861;28;20044;-62
2022/08/26 03:17:51;;;;;;;38.08;18.65;;;;;;;;;;5053286;28;20128;-62
2022/08/26 03:20:18;;;;;;;33.03;18.75;;;;;;;;;;5053861;28;20124;-62
2022/08/26 03:22:44;;;;;;;31.60;19.25;;;;;;;;;;5053781;28;20041;-62
2022/08/26 03:25:13;;;;;;;34.78;17.33;;;;;;;;;;5052131;28;20460;-62
2022/08/26 03:27:39;;;;;;;27.10;18.67;;;;;;;;;;5053418;28;20043;-62
2022/08/26 03:32:50;;;;;;;27.33;16.85;;;;;;;;;;5053086;28;20445;-62
2022/08/26 03:35:16;;;;;;;32.13;18.38;;;;;;;;;;5053395;28;20045;-62
2022/08/26 03:37:42;;;;;;;25.08;17.02;;;;;;;;;;5053370;28;20411;-62
2022/08/26 03:40:09;;;;;;;31.90;18.13;;;;;;;;;;5053161;28;20048;-62
2022/08/26 03:42:37;;;;;;;30.67;17.35;;;;;;;;;;5053514;28;20152;-62
2022/08/26 03:45:04;;;;;;;29.02;16.73;;;;;;;;;;5053517;28;20071;-62
2022/08/26 03:47:30;;;;;;;26.13;17.38;;;;;;;;;;5052764;28;20044;-62
2022/08/26 03:49:58;;;;;;;27.92;15.98;;;;;;;;;;5052996;28;20091;-62
2022/08/26 03:52:24;;;;;;;29.88;16.85;;;;;;;;;;5053154;28;20075;-62
2022/08/26 03:54:50;;;;;;;29.58;17.08;;;;;;;;;;5052102;28;20472;-62
2022/08/26 03:57:16;;;;;;;31.17;15.45;;;;;;;;;;5052045;28;20041;-62
2022/08/26 03:59:42;;;;;;;27.15;15.32;;;;;;;;;;5047628;28;20168;-62
2022/08/26 04:02:08;;;;;;;26.05;15.52;;;;;;;;;;5022681;28;20519;-62
2022/08/26 04:04:34;;;;;;;27.13;16.42;;;;;;;;;;5052341;28;20040;-62
2022/08/26 04:07:00;;;;;;;27.33;15.55;;;;;;;;;;5051736;28;20094;-62
2022/08/26 04:09:27;;;;;;;22.42;15.80;;;;;;;;;;5051422;28;20049;-62
2022/08/26 04:11:53;;;;;;;30.02;16.00;;;;;;;;;;5052693;28;20052;-62
2022/08/26 04:14:22;;;;;;;27.55;15.00;;;;;;;;;;5052721;28;20380;-62
2022/08/26 04:16:48;;;;;;;25.98;14.00;;;;;;;;;;5052099;28;20040;-62
2022/08/26 04:19:15;;;;;;;26.33;14.18;;;;;;;;;;5052728;28;20080;-62
2022/08/26 04:21:42;;;;;;;25.85;13.07;;;;;;;;;;5052405;28;20036;-62
2022/08/26 04:24:10;;;;;;;22.63;12.43;;;;;;;;;;5052078;28;20041;-62
2022/08/26 04:26:36;;;;;;;25.27;13.00;;;;;;;;;;5052092;28;20051;-62
2022/08/26 04:29:11;;;;;;;21.02;11.85;;;;;;;;;;5051924;28;20044;-62
2022/08/26 04:31:38;;;;;;;19.38;12.10;;;;;;;;;;5051911;28;20517;-62
2022/08/26 04:34:05;;;;;;;18.60;12.30;;;;;;;;;;5052189;28;20047;-62
2022/08/26 04:36:31;;;;;;;29.17;12.93;;;;;;;;;;5052005;28;20060;-62
2022/08/26 04:39:00;;;;;;;21.25;12.27;;;;;;;;;;5051602;28;20049;-62
2022/08/26 04:41:26;;;;;;;23.95;12.98;;;;;;;;;;5034396;28;20041;-62
2022/08/26 04:43:52;;;;;;;22.92;12.48;;;;;;;;;;5052358;28;20052;-62
2022/08/26 04:46:21;;;;;;;29.40;14.90;;;;;;;;;;5051559;28;20044;-62
2022/08/26 04:48:49;;;;;;;26.77;13.35;;;;;;;;;;5051847;28;20045;-62
2022/08/26 04:51:16;;;;;;;28.27;12.45;;;;;;;;;;5052198;28;20438;-62
2022/08/26 04:53:42;;;;;;;20.48;11.65;;;;;;;;;;5051548;28;20087;-62
2022/08/26 04:56:08;;;;;;;26.33;11.75;;;;;;;;;;5051587;28;20037;-62
2022/08/26 04:58:34;;;;;;;24.92;11.65;;;;;;;;;;5052192;28;20444;-62
2022/08/26 05:01:00;;;;;;;22.23;11.45;;;;;;;;;;5035838;28;20033;-62
2022/08/26 05:03:26;;;;;;;27.27;11.85;;;;;;;;;;5051121;28;20055;-62
2022/08/26 05:05:53;;;;;;;22.35;11.48;;;;;;;;;;5051772;28;20045;-62
2022/08/26 05:08:20;;;;;;;22.67;10.68;;;;;;;;;;5050998;28;20060;-62
2022/08/26 05:10:50;;;;;;;21.17;11.38;;;;;;;;;;5051799;28;20167;-62
2022/08/26 05:13:17;;;;;;;19.98;10.68;;;;;;;;;;5051133;28;20045;-62
2022/08/26 05:15:44;;;;;;;19.55;9.73;;;;;;;;;;5050683;28;20499;-62
2022/08/26 05:18:12;;;;;;;21.05;11.32;;;;;;;;;;5051018;28;20488;-61
2022/08/26 05:20:41;;;;;;;23.85;10.75;;;;;;;;;;5051399;28;20097;-61
2022/08/26 05:23:08;;;;;;;16.15;9.10;;;;;;;;;;5035930;28;20038;-62
2022/08/26 05:25:41;;;;;;;17.05;9.85;;;;;;;;;;5031303;28;20042;-62
2022/08/26 05:28:11;;;;;;;18.58;9.70;;;;;;;;;;5031451;28;20056;-62
2022/08/26 05:30:37;;;;;;;20.23;10.27;;;;;;;;;;5030893;28;20565;-62
2022/08/26 05:33:03;;;;;;;17.20;9.55;;;;;;;;;;5031303;28;20037;-62
2022/08/26 05:35:30;;;;;;;22.85;9.80;;;;;;;;;;5031220;28;20175;-62
2022/08/26 05:37:58;;;;;;;18.85;8.77;;;;;;;;;;5030958;28;20429;-62
2022/08/26 05:40:24;;;;;;;16.75;8.88;;;;;;;;;;5031227;28;20038;-62
2022/08/26 05:42:51;;;;;;;16.20;8.32;;;;;;;;;;5031416;28;20045;-62
2022/08/26 05:45:18;;;;;;;17.50;8.50;;;;;;;;;;5030822;28;20120;-62
2022/08/26 05:47:44;;;;;;;20.60;9.23;;;;;;;;;;5032395;28;20037;-62
2022/08/26 05:50:10;;;;;;;16.00;8.10;;;;;;;;;;5017751;28;20033;-62
2022/08/26 05:52:37;;;;;;;22.13;8.98;;;;;;;;;;5034911;28;20044;-61
2022/08/26 05:55:03;;;;;;;21.50;9.55;;;;;;;;;;5035191;28;20038;-62
2022/08/26 05:57:29;;;;;;;18.08;8.55;;;;;;;;;;5034955;28;20033;-62
2022/08/26 05:59:56;;;;;;;19.67;8.65;;;;;;;;;;5041405;28;20542;-62
2022/08/26 06:02:22;;;;;;;20.23;8.63;;;;;;;;;;5044343;28;20037;-62
2022/08/26 06:04:48;;;;;;;19.48;7.88;;;;;;;;;;5034264;28;20040;-61
2022/08/26 06:07:15;;;;;;;21.48;8.45;;;;;;;;;;5033977;28;20049;-62
2022/08/26 06:09:42;;;;;;;21.67;7.95;;;;;;;;;;5047515;28;20072;-61
2022/08/26 06:12:08;;;;;;;17.48;8.93;;;;;;;;;;5035905;28;20041;-62
2022/08/26 06:14:34;;;;;;;16.67;7.50;;;;;;;;;;5034088;28;20175;-62
2022/08/26 06:17:01;;;;;;;22.00;8.23;;;;;;;;;;5030900;28;20498;-63
2022/08/26 06:19:28;;;;;;;17.08;7.93;;;;;;;;;;5045320;28;20252;-62
2022/08/26 06:21:54;;;;;;;15.13;7.88;;;;;;;;;;5052657;28;20047;-62
2022/08/26 06:27:08;;;;;;;19.20;7.43;;;;;;;;;;5054037;28;20041;-62
2022/08/26 06:29:35;;;;;;;18.08;7.25;;;;;;;;;;5053721;28;20128;-63
2022/08/26 06:32:02;;;;;;;17.92;7.68;;;;;;;;;;5042878;28;20040;-61
2022/08/26 06:34:29;;;;;;;22.80;7.50;;;;;;;;;;5054219;28;20808;-62
2022/08/26 06:36:57;;;;;;;16.25;7.38;;;;;;;;;;5053398;28;20048;-63
2022/08/26 06:39:23;;;;;;;16.20;7.30;;;;;;;;;;5052776;28;20494;-65
2022/08/26 06:41:50;;;;;;;23.30;6.45;;;;;;;;;;5034049;28;20033;-61
2022/08/26 06:44:16;;;;;;;18.02;6.75;;;;;;;;;;5033250;28;20077;-61
2022/08/26 06:46:43;;;;;;;17.52;6.20;;;;;;;;;;5033562;28;20116;-60
2022/08/26 06:49:09;;;;;;;18.25;6.93;;;;;;;;;;5033099;28;20040;-62
2022/08/26 06:51:37;;;;;;;22.02;6.53;;;;;;;;;;5032050;28;20519;-62
2022/08/26 06:54:04;;;;;;;16.27;5.78;;;;;;;;;;5033045;28;20045;-61
2022/08/26 06:56:36;;;;;;;15.23;6.22;;;;;;;;;;5038638;28;20049;-61
2022/08/26 06:59:03;;;;;;;16.70;6.00;;;;;;;;;;5028522;28;20113;-62
2022/08/26 07:01:30;;;;;;;15.73;6.28;;;;;;;;;;5033388;28;20044;-62
2022/08/26 07:03:57;;;;;;;13.48;5.45;;;;;;;;;;5045756;28;20055;-62
2022/08/26 07:06:24;;;;;;;16.42;5.75;;;;;;;;;;5034899;28;20042;-62
2022/08/26 07:08:52;;;;;;;21.17;5.55;;;;;;;;;;5039854;28;20064;-64
2022/08/26 07:11:18;;;;;;;20.02;6.32;;;;;;;;;;5035790;28;20056;-64
2022/08/26 07:13:44;;;;;;;22.30;5.78;;;;;;;;;;5034918;28;20053;-62
2022/08/26 07:16:11;;;;;;;14.68;4.80;;;;;;;;;;5038717;28;20072;-63
2022/08/26 07:18:38;;;;;;;13.63;5.25;;;;;;;;;;5032783;28;20073;-63
2022/08/26 07:21:06;;;;;;;21.17;5.22;;;;;;;;;;5041360;28;20601;-62
2022/08/26 07:23:32;;;;;;;15.27;5.40;;;;;;;;;;5045684;28;20048;-62
2022/08/26 07:25:59;;;;;;;18.65;4.88;;;;;;;;;;5044452;28;20482;-62
2022/08/26 07:28:25;;;;;;;13.98;5.00;;;;;;;;;;5037805;28;20071;-61
2022/08/26 07:30:51;;;;;;;23.95;5.93;;;;;;;;;;5039843;28;20037;-62
2022/08/26 07:33:17;;;;;;;20.10;5.18;;;;;;;;;;5044664;28;20170;-61
2022/08/26 07:35:44;;;;;;;14.93;4.18;;;;;;;;;;5042385;28;20091;-61
2022/08/26 07:38:11;;;;;;;14.23;3.78;;;;;;;;;;5041455;28;20033;-62
2022/08/26 07:40:37;;;;;;;15.27;4.07;;;;;;;;;;5045947;28;20045;-62
2022/08/26 07:43:03;;;;;;;13.05;3.63;;;;;;;;;;5036086;28;20037;-62
2022/08/26 07:45:29;;;;;;;12.68;3.85;;;;;;;;;;5048862;28;20041;-63
2022/08/26 07:47:55;;;;;;;14.98;4.00;;;;;;;;;;5041205;28;20044;-62
2022/08/26 07:50:22;;;;;;;17.00;4.18;;;;;;;;;;5048074;28;20037;-62
2022/08/26 07:52:48;;;;;;;13.52;3.78;;;;;;;;;;5025227;28;20044;-63
2022/08/26 07:55:14;;;;;;;13.27;4.28;;;;;;;;;;5038323;28;20128;-62
2022/08/26 07:57:41;;;;;;;15.73;3.80;;;;;;;;;;5048516;28;20454;-62
2022/08/26 08:00:08;;;;;;;16.30;3.65;;;;;;;;;;5048460;28;20076;-63
2022/08/26 08:02:34;;;;;;;10.80;3.30;;;;;;;;;;5022555;28;20043;-64
2022/08/26 08:05:00;;;;;;;18.63;3.88;;;;;;;;;;5049024;28;20107;-62
2022/08/26 08:07:27;;;;;;;13.90;3.20;;;;;;;;;;5040427;28;20073;-62
2022/08/26 08:09:53;;;;;;;15.05;4.10;;;;;;;;;;5039641;28;20223;-62
2022/08/26 08:12:19;;;;;;;10.75;2.95;;;;;;;;;;5033326;28;20038;-60
2022/08/26 08:14:47;;;;;;;15.15;2.70;;;;;;;;;;5037345;28;20041;-61
2022/08/26 08:17:13;;;;;;;10.93;2.58;;;;;;;;;;5032972;28;20041;-61
2022/08/26 08:19:40;;;;;;;10.27;2.40;;;;;;;;;;5038031;28;20068;-59
2022/08/26 08:22:06;;;;;;;11.13;2.83;;;;;;;;;;5036514;28;20516;-62
2022/08/26 08:24:33;;;;;;;6.80;2.20;;;;;;;;;;5044858;28;20605;-60
2022/08/26 08:26:59;;;;;;;6.60;2.08;;;;;;;;;;5035987;28;20060;-62
2022/08/26 08:29:28;;;;;;;10.20;2.47;;;;;;;;;;5039289;28;20048;-61
2022/08/26 08:31:54;;;;;;;14.23;2.45;;;;;;;;;;5044931;28;20045;-63
2022/08/26 08:34:21;;;;;;;12.05;2.58;;;;;;;;;;5039655;28;20076;-63
2022/08/26 08:36:46;;;;;;;10.77;2.83;;;;;;;;;;5044173;28;20084;-63
2022/08/26 08:39:13;;;;;;;13.20;2.95;;;;;;;;;;5043764;28;20655;-63
2022/08/26 08:41:58;;;;;;;11.88;2.28;;;;;;;;;;5046612;28;20048;-64
2022/08/26 08:44:24;;;;;;;7.95;2.17;;;;;;;;;;5045296;28;20048;-62
2022/08/26 08:47:13;;;;;;;9.48;2.25;;;;;;;;;;5050305;28;20075;-62
2022/08/26 08:49:39;;;;;;;9.50;2.05;;;;;;;;;;5036665;28;20649;-63
2022/08/26 08:52:28;;;;;;;8.32;1.75;;;;;;;;;;5034011;28;20079;-63
2022/08/26 08:54:55;;;;;;;6.93;1.58;;;;;;;;;;5038576;28;20403;-63
2022/08/26 08:57:25;;;;;;;7.60;1.65;;;;;;;;;;5043117;28;20045;-62
2022/08/26 09:00:01;;;;;;;9.90;2.05;;;;;;;;;;5036400;28;20091;-62
2022/08/26 09:02:54;;;;;;;10.48;1.70;;;;;;;;;;5028944;28;20045;-62
2022/08/26 09:05:20;;;;;;;7.32;1.60;;;;;;;;;;4996148;28;20107;-63
2022/08/26 09:07:55;;;;;;;5.78;1.38;;;;;;;;;;5040251;28;20053;-62
2022/08/26 09:10:33;;;;;;;10.85;2.33;;;;;;;;;;5038489;28;20087;-62
2022/08/26 09:13:00;;;;;;;7.55;1.70;;;;;;;;;;5038847;28;20047;-62
2022/08/26 09:15:41;;;;;;;10.90;1.80;;;;;;;;;;5045918;28;20531;-61
2022/08/26 09:18:18;;;;;;;8.73;1.70;;;;;;;;;;5041953;28;20124;-61
2022/08/26 09:21:05;;;;;;;11.38;1.80;;;;;;;;;;5040499;28;20121;-61
2022/08/26 09:23:32;;;;;;;13.18;2.22;;;;;;;;;;5011813;28;20501;-63
2022/08/26 09:26:17;;;;;;;12.02;1.67;;;;;;;;;;5015303;28;20048;-61
2022/08/26 09:29:03;;;;;;;10.43;1.95;;;;;;;;;;5015023;28;20059;-62
2022/08/26 09:31:34;;;;;;;17.00;1.63;;;;;;;;;;5039108;28;20041;-62
2022/08/26 09:34:21;;;;;;;8.88;1.65;;;;;;;;;;5032293;28;20041;-62
2022/08/26 09:36:49;;;;;;;10.45;1.90;;;;;;;;;;5043685;28;20149;-62
2022/08/26 09:39:26;;;;;;;12.02;2.00;;;;;;;;;;5041491;28;20477;-61
2022/08/26 09:42:01;;;;;;;9.88;1.63;;;;;;;;;;5042607;28;20041;-62
2022/08/26 09:44:27;;;;;;;5.75;1.50;;;;;;;;;;5036823;28;20092;-62
2022/08/26 09:46:55;;;;;;;10.18;2.17;;;;;;;;;;5041714;28;20132;-61
2022/08/26 09:49:23;;;;;;;13.60;2.00;;;;;;;;;;5033468;28;20048;-62
2022/08/26 09:52:02;;;;;;;6.53;2.10;;;;;;;;;;5042998;28;20467;-63
2022/08/26 09:54:28;;;;;;;11.82;1.80;;;;;;;;;;5043888;28;20460;-62
2022/08/26 09:57:09;;;;;;;16.55;2.30;;;;;;;;;;5037580;28;20044;-62
2022/08/26 09:59:35;;;;;;;6.50;2.33;;;;;;;;;;5037587;28;20049;-62
2022/08/26 10:02:33;;;;;;;9.68;1.90;;;;;;;;;;5039620;28;20038;-62
2022/08/26 10:05:01;;;;;;;7.85;1.75;;;;;;;;;;4995572;28;20152;-62
2022/08/26 10:07:35;;;;;;;10.43;1.70;;;;;;;;;;5038392;28;20570;-60
2022/08/26 10:10:03;;;;;;;8.65;1.50;;;;;;;;;;5029551;28;20129;-62
2022/08/26 10:12:32;;;;;;;9.07;2.13;;;;;;;;;;5037279;28;21336;-61
2022/08/26 10:15:01;;;;;;;12.93;1.90;;;;;;;;;;5043756;28;20120;-67
2022/08/26 10:17:36;;;;;;;10.57;2.08;;;;;;;;;;5036735;28;20147;-61
2022/08/26 10:20:06;;;;;;;8.00;1.45;;;;;;;;;;5043026;28;20049;-60
2022/08/26 10:22:38;;;;;;;12.70;2.50;;;;;;;;;;5036087;28;20056;-63
2022/08/26 10:25:06;;;;;;;9.35;1.90;;;;;;;;;;5030350;28;20065;-62
2022/08/26 10:27:45;;;;;;;6.90;2.20;;;;;;;;;;5041696;28;20510;-63
2022/08/26 10:30:22;;;;;;;11.00;2.42;;;;;;;;;;5030020;28;20051;-62
2022/08/26 10:32:50;;;;;;;10.00;1.85;;;;;;;;;;5035844;28;20195;-64
2022/08/26 10:35:18;;;;;;;9.52;1.80;;;;;;;;;;5045039;28;20683;-65
2022/08/26 10:37:52;;;;;;;11.30;1.80;;;;;;;;;;5038125;28;20041;-64
2022/08/26 10:40:28;;;;;;;8.80;1.58;;;;;;;;;;5041144;28;20045;-64
2022/08/26 10:42:54;;;;;;;7.75;1.77;;;;;;;;;;5037812;28;20025;-63
2022/08/26 10:45:24;;;;;;;6.43;1.60;;;;;;;;;;5041479;28;20041;-63
2022/08/26 10:47:59;;;;;;;7.38;1.58;;;;;;;;;;5041257;28;20099;-65
2022/08/26 10:50:45;;;;;;;7.45;1.83;;;;;;;;;;5034620;28;20087;-63
2022/08/26 10:53:36;;;;;;;6.47;1.83;;;;;;;;;;5033485;28;20044;-63
2022/08/26 10:56:19;;;;;;;8.07;2.05;;;;;;;;;;5040044;28;20414;-63
2022/08/26 10:58:53;;;;;;;8.20;1.90;;;;;;;;;;5048910;28;20040;-64
2022/08/26 11:01:40;;;;;;;10.40;2.00;;;;;;;;;;5039821;28;20046;-63
2022/08/26 11:04:10;;;;;;;10.63;2.10;;;;;;;;;;5040241;28;20036;-63
2022/08/26 11:06:36;;;;;;;9.90;1.95;;;;;;;;;;5028009;28;20707;-63
2022/08/26 11:09:04;;;;;;;13.13;1.65;;;;;;;;;;5039468;28;20122;-62
2022/08/26 11:11:39;;;;;;;6.65;1.58;;;;;;;;;;5041028;28;20042;-63
2022/08/26 11:14:05;;;;;;;8.85;1.63;;;;;;;;;;5043315;28;20152;-63
2022/08/26 11:16:35;;;;;;;7.63;1.50;;;;;;;;;;5040233;28;20410;-62
2022/08/26 11:19:01;;;;;;;8.18;1.80;;;;;;;;;;5047804;28;20030;-64
2022/08/26 11:21:46;;;;;;;8.45;1.60;;;;;;;;;;5042579;28;20188;-64
2022/08/26 11:24:30;;;;;;;6.53;1.55;;;;;;;;;;5043511;28;20491;-64
2022/08/26 11:26:56;;;;;;;10.52;1.75;;;;;;;;;;5042306;28;20072;-63
2022/08/26 11:29:42;;;;;;;11.40;1.90;;;;;;;;;;5034625;28;20052;-63
2022/08/26 11:32:22;;;;;;;8.70;1.98;;;;;;;;;;5037761;28;20054;-63
2022/08/26 11:34:56;;;;;;;8.98;1.52;;;;;;;;;;5045618;28;20456;-63
2022/08/26 11:37:25;;;;;;;5.53;1.35;;;;;;;;;;5042584;28;20041;-63
2022/08/26 11:39:54;;;;;;;9.40;1.80;;;;;;;;;;5018913;28;20041;-63
2022/08/26 11:42:33;;;;;;;13.55;1.75;;;;;;;;;;5045023;28;20504;-61
2022/08/26 11:45:00;;;;;;;5.55;1.58;;;;;;;;;;5039524;28;20479;-62
2022/08/26 11:47:28;;;;;;;9.68;1.27;;;;;;;;;;5042860;28;20060;-62
2022/08/26 11:50:22;;;;;;;7.35;1.50;;;;;;;;;;5044764;28;20463;-63
2022/08/26 11:53:00;;;;;;;7.95;1.48;;;;;;;;;;5039151;28;20061;-63
2022/08/26 11:55:27;;;;;;;8.20;1.67;;;;;;;;;;5033000;28;20056;-63
2022/08/26 11:57:55;;;;;;;11.55;2.75;;;;;;;;;;5030865;28;20072;-62
2022/08/26 12:00:25;;;;;;;8.65;1.85;;;;;;;;;;5033682;28;20045;-62
2022/08/26 12:02:53;;;;;;;7.50;1.35;;;;;;;;;;5042879;28;20033;-62
2022/08/26 12:05:29;;;;;;;7.68;1.45;;;;;;;;;;5041529;28;20045;-62
2022/08/26 12:07:55;;;;;;;8.65;1.58;;;;;;;;;;5036605;28;20107;-62
2022/08/26 12:10:28;;;;;;;6.78;1.52;;;;;;;;;;5043495;28;20495;-62
2022/08/26 12:12:56;;;;;;;7.65;1.55;;;;;;;;;;5041421;28;20045;-62
2022/08/26 12:15:22;;;;;;;11.18;2.22;;;;;;;;;;5028333;28;20064;-62
2022/08/26 12:17:50;;;;;;;13.27;1.85;;;;;;;;;;5045403;28;20132;-61
2022/08/26 12:20:19;;;;;;;8.70;1.70;;;;;;;;;;5047506;28;20144;-63
2022/08/26 12:22:45;;;;;;;9.65;1.80;;;;;;;;;;5045621;28;20068;-63
2022/08/26 12:25:11;;;;;;;7.45;1.75;;;;;;;;;;5039680;28;20091;-63
2022/08/26 12:27:39;;;;;;;5.78;1.42;;;;;;;;;;5039865;28;20381;-62
2022/08/26 12:30:08;;;;;;;7.10;1.10;;;;;;;;;;5033292;28;20045;-60
2022/08/26 12:32:34;;;;;;;5.78;1.10;;;;;;;;;;5039135;28;20161;-61
2022/08/26 12:35:01;;;;;;;11.90;1.77;;;;;;;;;;5039401;28;20467;-60
2022/08/26 12:37:28;;;;;;;5.68;1.27;;;;;;;;;;5042491;28;20054;-62
2022/08/26 12:39:54;;;;;;;11.88;1.52;;;;;;;;;;5043021;28;20037;-64
2022/08/26 12:42:39;;;;;;;5.93;1.70;;;;;;;;;;5047202;28;20548;-64
2022/08/26 12:45:05;;;;;;;6.85;1.27;;;;;;;;;;5038703;28;20037;-64
2022/08/26 12:47:40;;;;;;;7.38;1.52;;;;;;;;;;5038790;28;20064;-62
2022/08/26 12:50:09;;;;;;;4.70;1.08;;;;;;;;;;5035223;28;20049;-62
2022/08/26 12:52:58;;;;;;;5.32;1.80;;;;;;;;;;5039054;28;20033;-62
2022/08/26 12:55:35;;;;;;;3.28;1.00;;;;;;;;;;5039334;28;20049;-62
2022/08/26 12:58:22;;;;;;;5.40;1.52;;;;;;;;;;5044368;28;20041;-61
2022/08/26 13:00:52;;;;;;;5.00;1.42;;;;;;;;;;5044807;28;20041;-63
2022/08/26 13:03:33;;;;;;;5.57;1.67;;;;;;;;;;5038458;28;20041;-61
2022/08/26 13:06:10;;;;;;;7.20;1.50;;;;;;;;;;5045475;28;20137;-62
2022/08/26 13:08:39;;;;;;;5.00;1.15;;;;;;;;;;5029955;28;20143;-63
2022/08/26 13:11:25;;;;;;;3.42;1.17;;;;;;;;;;5040529;28;20041;-62
2022/08/26 13:13:54;;;;;;;4.53;1.55;;;;;;;;;;5030588;28;20057;-60
2022/08/26 13:16:21;;;;;;;7.68;1.40;;;;;;;;;;5037376;28;20052;-62
2022/08/26 13:18:48;;;;;;;7.97;1.27;;;;;;;;;;5049193;28;20052;-62
2022/08/26 13:21:19;;;;;;;7.78;1.80;;;;;;;;;;5046153;28;20041;-62
2022/08/26 13:23:45;;;;;;;6.70;1.80;;;;;;;;;;5044429;28;21798;-60
2022/08/26 13:26:11;;;;;;;3.40;1.23;;;;;;;;;;5042492;28;20408;-61
2022/08/26 13:28:38;;;;;;;12.65;1.90;;;;;;;;;;5038772;28;20041;-61
2022/08/26 13:31:04;;;;;;;7.10;1.65;;;;;;;;;;5042337;28;20038;-61
2022/08/26 13:33:31;;;;;;;6.82;1.63;;;;;;;;;;5038149;28;20071;-60
2022/08/26 13:35:57;;;;;;;6.25;1.73;;;;;;;;;;5035422;28;20134;-61
2022/08/26 13:38:23;;;;;;;8.95;1.60;;;;;;;;;;5044039;28;20064;-61
2022/08/26 13:40:50;;;;;;;5.90;1.98;;;;;;;;;;5042464;28;20036;-62
2022/08/26 13:43:16;;;;;;;6.05;1.65;;;;;;;;;;5029525;28;20041;-60
2022/08/26 13:45:43;;;;;;;5.85;1.58;;;;;;;;;;5046665;28;20033;-61
2022/08/26 13:48:09;;;;;;;4.07;1.50;;;;;;;;;;5034387;28;20107;-62
2022/08/26 13:50:36;;;;;;;5.30;1.90;;;;;;;;;;5038624;28;20045;-60
2022/08/26 13:53:02;;;;;;;8.65;2.10;;;;;;;;;;5030044;28;20035;-61
2022/08/26 13:55:28;;;;;;;7.10;1.73;;;;;;;;;;5038829;28;20056;-63
2022/08/26 13:57:55;;;;;;;8.50;1.77;;;;;;;;;;5047751;28;20036;-61
2022/08/26 14:00:21;;;;;;;4.55;1.50;;;;;;;;;;5040139;28;20183;-61
2022/08/26 14:02:47;;;;;;;6.47;1.50;;;;;;;;;;5040887;28;20045;-62
2022/08/26 14:05:13;;;;;;;6.20;2.00;;;;;;;;;;5046955;28;20040;-61
2022/08/26 14:07:40;;;;;;;5.95;1.75;;;;;;;;;;5040700;28;20146;-62
2022/08/26 14:10:07;;;;;;;9.38;2.20;;;;;;;;;;5039720;28;20515;-61
2022/08/26 14:12:34;;;;;;;3.95;1.70;;;;;;;;;;5037121;28;20045;-61
2022/08/26 14:15:00;;;;;;;8.95;2.10;;;;;;;;;;5040564;28;20036;-63
2022/08/26 14:17:26;;;;;;;7.10;2.08;;;;;;;;;;5043215;28;20052;-62
2022/08/26 14:19:52;;;;;;;6.88;1.77;;;;;;;;;;5039753;28;20045;-62
2022/08/26 14:22:20;;;;;;;5.50;1.45;;;;;;;;;;5036527;28;20053;-62
2022/08/26 14:24:46;;;;;;;6.57;1.80;;;;;;;;;;5048148;28;20033;-62
2022/08/26 14:27:12;;;;;;;4.85;1.67;;;;;;;;;;5041114;28;20044;-62
2022/08/26 14:29:39;;;;;;;4.85;1.42;;;;;;;;;;5040505;28;20045;-64
2022/08/26 14:32:11;;;;;;;7.95;1.83;;;;;;;;;;5032696;28;20037;-64
2022/08/26 14:34:39;;;;;;;12.18;2.13;;;;;;;;;;5041542;28;20038;-64
2022/08/26 14:37:05;;;;;;;3.05;1.40;;;;;;;;;;5035116;28;20046;-64
2022/08/26 14:39:32;;;;;;;7.80;1.60;;;;;;;;;;5038546;28;20037;-64
2022/08/26 14:41:58;;;;;;;6.35;1.50;;;;;;;;;;5041844;28;20471;-64
2022/08/26 14:44:27;;;;;;;6.60;1.52;;;;;;;;;;5036993;28;20045;-64